Time;durP1;ratioP1;P1;durP2;ratioP2;P2;SDS_P1;SDS_P2;PMS_P1;PMS_P2;Temp;Humidity;BMP_temperature;BMP_pressure;BME280_temperature;BME280_humidity;BME280_pressure;Samples;Min_cycle;Max_cycle;Signal;HPM_P1;HPM_P2
2021/12/19 00:00:26;;;;;;;105.93;19.05;;;5.60;99.90;;;;;;4790721;30;20051;-84
2021/12/19 00:03:08;;;;;;;145.02;23.77;;;5.60;99.90;;;;;;4801165;29;20505;-84
2021/12/19 00:08:41;;;;;;;85.82;17.98;;;5.50;99.90;;;;;;4808398;29;20143;-83
2021/12/19 00:11:08;;;;;;;83.95;19.58;;;5.70;99.90;;;;;;4802853;29;20574;-83
2021/12/19 00:13:36;;;;;;;143.35;22.02;;;5.60;99.90;;;;;;4790293;30;20101;-83
2021/12/19 00:16:03;;;;;;;96.70;20.63;;;5.50;99.90;;;;;;4790128;30;20122;-83
2021/12/19 00:18:30;;;;;;;87.80;19.33;;;5.30;99.90;;;;;;4790422;30;20411;-83
2021/12/19 00:20:59;;;;;;;75.63;17.88;;;5.40;99.90;;;;;;4789949;29;20059;-83
2021/12/19 00:23:26;;;;;;;125.00;20.52;;;5.40;99.90;;;;;;4789353;29;20503;-83
2021/12/19 00:25:53;;;;;;;90.60;19.38;;;5.60;99.90;;;;;;4790162;30;20055;-83
2021/12/19 00:28:21;;;;;;;58.10;19.40;;;5.60;99.90;;;;;;4790452;30;20062;-84
2021/12/19 00:30:49;;;;;;;99.88;18.85;;;5.60;99.90;;;;;;4790730;30;20462;-84
2021/12/19 00:33:16;;;;;;;166.45;22.35;;;5.60;99.90;;;;;;4790053;30;20586;-84
2021/12/19 00:35:43;;;;;;;79.40;20.13;;;5.60;99.90;;;;;;4789716;30;20480;-84
2021/12/19 00:38:12;;;;;;;90.45;19.52;;;5.50;99.90;;;;;;4789822;29;20521;-84
2021/12/19 00:40:39;;;;;;;69.72;17.10;;;5.60;99.90;;;;;;4789884;30;20135;-84
2021/12/19 00:43:09;;;;;;;98.93;18.20;;;5.50;99.90;;;;;;4789972;30;20104;-84
2021/12/19 00:45:40;;;;;;;149.65;23.95;;;5.50;99.90;;;;;;4789863;30;20058;-84
2021/12/19 00:48:08;;;;;;;121.85;19.88;;;5.50;99.90;;;;;;4789778;29;20051;-84
2021/12/19 00:50:37;;;;;;;197.23;22.13;;;5.40;99.90;;;;;;4789709;30;20051;-84
2021/12/19 00:53:04;;;;;;;90.85;18.88;;;5.40;99.90;;;;;;4789249;30;20387;-84
2021/12/19 00:55:34;;;;;;;114.82;20.38;;;5.40;99.90;;;;;;4789648;30;20047;-84
2021/12/19 00:58:01;;;;;;;71.35;19.30;;;5.30;99.90;;;;;;4789282;30;20047;-84
2021/12/19 01:00:31;;;;;;;101.40;20.33;;;5.30;99.90;;;;;;4789406;29;20047;-83
2021/12/19 01:02:59;;;;;;;136.52;21.73;;;5.30;99.90;;;;;;4790699;29;20086;-84
2021/12/19 01:05:28;;;;;;;73.90;19.45;;;5.30;99.90;;;;;;4807156;29;20054;-84
2021/12/19 01:07:56;;;;;;;101.38;19.05;;;5.20;99.90;;;;;;4807212;29;20097;-83
2021/12/19 01:10:23;;;;;;;184.18;20.90;;;5.20;99.90;;;;;;4807215;29;20464;-84
2021/12/19 01:12:52;;;;;;;92.88;18.65;;;5.20;99.90;;;;;;4807210;29;20093;-84
2021/12/19 01:15:20;;;;;;;120.03;20.50;;;5.20;99.90;;;;;;4807285;29;20078;-84
2021/12/19 01:17:47;;;;;;;177.55;20.80;;;5.20;99.90;;;;;;4807036;29;20112;-84
2021/12/19 01:20:17;;;;;;;113.45;20.17;;;5.20;99.90;;;;;;4807223;29;20089;-84
2021/12/19 01:22:44;;;;;;;;;;;5.10;99.90;;;;;;4807313;29;20107;-84
2021/12/19 01:25:14;;;;;;;57.45;16.98;;;5.10;99.90;;;;;;4807109;29;19929;-84
2021/12/19 01:27:42;;;;;;;107.10;18.20;;;5.20;99.90;;;;;;4806849;29;20092;-84
2021/12/19 01:30:12;;;;;;;176.48;21.50;;;5.10;99.90;;;;;;4806739;29;20046;-84
2021/12/19 01:32:39;;;;;;;148.70;20.88;;;5.10;99.90;;;;;;4806367;29;20055;-84
2021/12/19 01:35:09;;;;;;;175.10;22.98;;;5.00;99.90;;;;;;4788336;29;20086;-84
2021/12/19 01:37:36;;;;;;;98.80;18.42;;;5.00;99.90;;;;;;4788417;30;20055;-84
2021/12/19 01:40:04;;;;;;;89.57;18.83;;;5.00;99.90;;;;;;4788726;30;20097;-84
2021/12/19 01:42:33;;;;;;;80.90;17.77;;;5.00;99.90;;;;;;4788564;30;20063;-84
2021/12/19 01:45:01;;;;;;;125.50;19.27;;;5.10;99.90;;;;;;4788390;30;20240;-84
2021/12/19 01:47:29;;;;;;;117.18;19.73;;;5.20;99.90;;;;;;4788549;30;20406;-82
2021/12/19 01:49:59;;;;;;;164.95;21.25;;;5.10;99.90;;;;;;4788759;30;20490;-82
2021/12/19 01:52:28;;;;;;;174.57;18.92;;;5.00;99.90;;;;;;4788601;30;20066;-83
2021/12/19 01:54:56;;;;;;;111.20;18.15;;;5.00;99.90;;;;;;4794874;29;20062;-83
2021/12/19 01:57:25;;;;;;;148.57;18.98;;;5.00;99.90;;;;;;4806325;29;20070;-83
2021/12/19 01:59:52;;;;;;;170.35;19.88;;;5.00;99.90;;;;;;4806312;29;20119;-83
2021/12/19 02:02:19;;;;;;;137.23;18.98;;;5.00;99.90;;;;;;4806174;29;20051;-83
2021/12/19 02:04:48;;;;;;;135.00;20.15;;;4.90;99.90;;;;;;4805794;29;20063;-83
2021/12/19 02:07:15;;;;;;;109.43;17.60;;;5.00;99.90;;;;;;4806506;29;20051;-83
2021/12/19 02:09:43;;;;;;;68.53;15.48;;;5.00;99.90;;;;;;4805981;29;20086;-84
2021/12/19 02:12:10;;;;;;;67.50;14.63;;;5.00;99.90;;;;;;4793171;29;20114;-83
2021/12/19 02:14:37;;;;;;;131.63;18.20;;;5.00;99.90;;;;;;4787875;30;20554;-84
2021/12/19 02:17:05;;;;;;;93.45;17.20;;;5.20;99.90;;;;;;4788206;30;20052;-83
2021/12/19 02:19:33;;;;;;;92.85;16.00;;;4.90;99.90;;;;;;4788178;30;20086;-84
2021/12/19 02:22:02;;;;;;;102.00;15.00;;;4.90;99.90;;;;;;4787914;30;20602;-84
2021/12/19 02:24:29;;;;;;;85.33;16.80;;;5.00;99.90;;;;;;4787678;30;20048;-83
2021/12/19 02:26:56;;;;;;;56.53;13.85;;;4.90;99.90;;;;;;4787977;30;20076;-84
2021/12/19 02:29:23;;;;;;;92.78;16.20;;;4.90;99.90;;;;;;4787928;30;20115;-84
2021/12/19 02:31:50;;;;;;;92.68;16.42;;;4.90;99.90;;;;;;4788044;30;20047;-84
2021/12/19 02:34:21;;;;;;;70.95;15.05;;;4.80;99.90;;;;;;4787991;30;20407;-83
2021/12/19 02:36:52;;;;;;;93.40;15.88;;;4.90;99.90;;;;;;4788368;30;20121;-83
2021/12/19 02:48:13;;;;;;;51.58;16.10;;;4.60;99.90;;;;;;4773609;30;20062;-83
2021/12/19 02:50:47;;;;;;;64.38;13.55;;;4.50;99.90;;;;;;4791341;30;20124;-83
2021/12/19 02:53:14;;;;;;;74.80;13.35;;;4.70;99.90;;;;;;4791924;30;20054;-83
2021/12/19 02:55:44;;;;;;;59.22;14.10;;;4.70;99.90;;;;;;4792064;30;20116;-83
2021/12/19 02:58:11;;;;;;;105.30;14.32;;;4.60;99.90;;;;;;4792018;30;20051;-83
2021/12/19 03:00:39;;;;;;;60.67;14.27;;;4.60;99.90;;;;;;4791479;30;20495;-83
2021/12/19 03:03:06;;;;;;;56.75;14.50;;;4.50;99.90;;;;;;4791628;30;20410;-83
2021/12/19 03:05:33;;;;;;;51.03;14.10;;;4.50;99.90;;;;;;4791319;30;20055;-83
2021/12/19 03:08:02;;;;;;;117.80;16.65;;;4.60;99.90;;;;;;4791280;30;20492;-83
2021/12/19 03:13:29;;;;;;;94.72;16.60;;;4.60;99.90;;;;;;4787857;29;19977;-83
2021/12/19 03:18:41;;;;;;;96.85;16.60;;;4.40;99.90;;;;;;4791544;30;20058;-83
2021/12/19 03:21:15;;;;;;;126.82;19.45;;;4.50;99.90;;;;;;4791953;30;20055;-84
2021/12/19 03:23:42;;;;;;;119.80;17.35;;;4.10;99.90;;;;;;4791474;30;20061;-83
2021/12/19 03:26:10;;;;;;;96.75;16.85;;;4.00;99.90;;;;;;4791038;30;20059;-84
2021/12/19 03:28:38;;;;;;;59.63;16.10;;;4.10;99.90;;;;;;4791137;30;20513;-83
2021/12/19 03:31:05;;;;;;;65.33;13.83;;;4.20;99.90;;;;;;4791269;30;20081;-83
2021/12/19 03:33:35;;;;;;;62.17;14.43;;;4.40;99.90;;;;;;4791295;30;20109;-84
2021/12/19 03:36:02;;;;;;;;;;;4.50;99.90;;;;;;4791566;30;20055;-84
2021/12/19 03:38:29;;;;;;;127.80;15.93;;;4.40;99.90;;;;;;4791447;30;19957;-84
2021/12/19 03:41:10;;;;;;;149.02;16.98;;;4.30;99.90;;;;;;4791220;30;20097;-83
2021/12/19 03:43:39;;;;;;;185.30;19.52;;;4.20;99.90;;;;;;4791145;30;20059;-83
2021/12/19 03:46:07;;;;;;;158.55;18.65;;;4.20;99.90;;;;;;4790899;30;20051;-83
2021/12/19 03:48:34;;;;;;;109.95;16.98;;;4.10;99.90;;;;;;4784891;30;20117;-83
2021/12/19 03:51:01;;;;;;;111.05;17.15;;;4.10;99.90;;;;;;4790285;30;20108;-84
2021/12/19 03:53:28;;;;;;;254.52;21.88;;;4.20;99.90;;;;;;4790335;30;20067;-83
2021/12/19 03:55:55;;;;;;;224.55;20.85;;;4.10;99.90;;;;;;4790413;30;20449;-83
2021/12/19 03:58:22;;;;;;;78.88;14.55;;;4.10;99.90;;;;;;4789783;29;20051;-83
2021/12/19 04:00:54;;;;;;;96.28;17.50;;;4.00;99.90;;;;;;4790523;30;20074;-83
2021/12/19 04:03:21;;;;;;;87.88;15.02;;;4.20;99.90;;;;;;4800870;29;20066;-83
2021/12/19 04:05:50;;;;;;;191.88;17.63;;;4.20;99.90;;;;;;4807319;29;20059;-83
2021/12/19 04:08:19;;;;;;;274.63;23.38;;;4.10;99.90;;;;;;4790276;30;20147;-83
2021/12/19 04:10:47;;;;;;;195.48;18.27;;;4.00;99.90;;;;;;4789848;30;20151;-83
2021/12/19 04:13:14;;;;;;;101.68;15.75;;;3.90;99.90;;;;;;4790459;30;20055;-83
2021/12/19 04:15:41;;;;;;;94.53;14.45;;;4.00;99.90;;;;;;4790295;30;20086;-83
2021/12/19 04:18:10;;;;;;;103.57;14.05;;;4.10;99.90;;;;;;4790805;30;20051;-83
2021/12/19 04:20:37;;;;;;;210.10;17.87;;;4.10;99.90;;;;;;4790668;30;20461;-83
2021/12/19 04:23:04;;;;;;;161.65;16.60;;;4.10;99.90;;;;;;4790320;30;20338;-83
2021/12/19 04:25:31;;;;;;;73.60;12.55;;;4.00;99.90;;;;;;4790390;30;20054;-83
2021/12/19 04:28:00;;;;;;;68.15;12.43;;;3.90;99.90;;;;;;4790358;30;20116;-84
2021/12/19 04:30:27;;;;;;;177.70;18.10;;;4.00;99.90;;;;;;4789991;30;20055;-84
2021/12/19 04:33:01;;;;;;;122.97;15.77;;;4.00;99.90;;;;;;4790376;30;20059;-84
2021/12/19 04:35:33;;;;;;;54.78;11.20;;;4.10;99.90;;;;;;4790557;30;20051;-84
2021/12/19 04:41:11;;;;;;;182.68;16.27;;;4.10;99.90;;;;;;4774031;30;20098;-84
2021/12/19 04:44:23;;;;;;;86.15;12.35;;;4.00;99.90;;;;;;4789991;30;20051;-84
2021/12/19 04:55:11;;;;;;;155.73;13.13;;;3.90;99.90;;;;;;4789289;30;20093;-83
2021/12/19 04:57:44;;;;;;;112.30;13.30;;;4.00;99.90;;;;;;4789780;30;20051;-83
2021/12/19 05:00:15;;;;;;;182.38;14.57;;;4.00;99.90;;;;;;4789640;30;20503;-83
2021/12/19 05:02:50;;;;;;;107.32;12.27;;;4.00;99.90;;;;;;4789782;30;20055;-82
2021/12/19 05:05:30;;;;;;;104.22;12.35;;;4.10;99.90;;;;;;4790069;30;20447;-83
2021/12/19 05:16:16;;;;;;;148.38;13.18;;;3.70;99.90;;;;;;4789537;30;20104;-83
2021/12/19 05:18:48;;;;;;;81.10;11.50;;;3.60;99.90;;;;;;4789143;30;20145;-83
2021/12/19 05:21:18;;;;;;;87.45;9.15;;;3.60;99.90;;;;;;4789421;30;20051;-83
2021/12/19 05:26:30;;;;;;;184.18;15.02;;;3.40;99.90;;;;;;4788646;30;20052;-83
2021/12/19 05:28:57;;;;;;;275.83;17.77;;;3.40;99.90;;;;;;4789575;30;20075;-83
2021/12/19 05:31:24;;;;;;;117.57;12.35;;;3.30;99.90;;;;;;4789050;30;20055;-83
2021/12/19 05:33:51;;;;;;;263.80;17.17;;;3.40;99.90;;;;;;4789100;30;20059;-83
2021/12/19 05:47:21;;;;;;;152.70;12.70;;;3.30;99.90;;;;;;4787899;30;20058;-84
2021/12/19 05:49:48;;;;;;;120.60;11.88;;;3.30;99.90;;;;;;4789047;30;20055;-84
2021/12/19 05:52:16;;;;;;;188.77;13.98;;;3.30;99.90;;;;;;4788853;30;20118;-83
2021/12/19 05:54:44;;;;;;;219.65;14.75;;;3.10;99.90;;;;;;4788670;30;20410;-84
2021/12/19 05:57:11;;;;;;;183.57;14.13;;;3.10;99.90;;;;;;4788841;30;20067;-83
2021/12/19 05:59:38;;;;;;;166.23;14.30;;;3.00;99.90;;;;;;4789113;30;20059;-84
2021/12/19 06:02:05;;;;;;;277.60;17.05;;;3.00;99.90;;;;;;4789437;29;20042;-83
2021/12/19 06:04:32;;;;;;;264.33;17.80;;;2.90;99.90;;;;;;4805496;29;20123;-84
2021/12/19 06:06:59;;;;;;;113.78;11.95;;;2.80;99.90;;;;;;4806826;29;20115;-83
2021/12/19 06:09:26;;;;;;;96.38;10.65;;;2.90;99.90;;;;;;4806913;29;20047;-83
2021/12/19 06:11:55;;;;;;;164.43;12.55;;;3.00;99.90;;;;;;4806490;29;20055;-83
2021/12/19 06:14:23;;;;;;;92.65;10.40;;;3.00;99.90;;;;;;4806303;29;20115;-83
2021/12/19 06:16:50;;;;;;;62.45;8.55;;;3.00;99.90;;;;;;4806699;29;20051;-83
2021/12/19 06:19:17;;;;;;;84.30;9.23;;;3.00;99.90;;;;;;4806284;29;20491;-83
2021/12/19 06:21:43;;;;;;;114.13;9.45;;;3.00;99.90;;;;;;4805946;29;20078;-83
2021/12/19 06:24:10;;;;;;;92.72;10.00;;;3.00;99.90;;;;;;4806432;29;20115;-83
2021/12/19 06:26:37;;;;;;;118.63;10.32;;;2.90;99.90;;;;;;4806225;29;20159;-83
2021/12/19 06:29:06;;;;;;;79.95;9.65;;;2.90;99.90;;;;;;4805823;29;20499;-83
2021/12/19 06:31:33;;;;;;;105.78;10.98;;;2.80;99.90;;;;;;4806136;29;20086;-83
2021/12/19 06:34:01;;;;;;;242.77;15.55;;;3.10;99.90;;;;;;4805627;29;20495;-83
2021/12/19 06:36:28;;;;;;;109.57;10.70;;;2.70;99.90;;;;;;4806308;29;20090;-83
2021/12/19 06:38:55;;;;;;;96.32;9.32;;;2.60;99.90;;;;;;4806200;29;20128;-83
2021/12/19 06:41:22;;;;;;;194.25;11.60;;;2.80;99.90;;;;;;4806326;29;20487;-84
2021/12/19 06:43:49;;;;;;;154.85;12.85;;;2.70;99.90;;;;;;4806647;29;20083;-83
2021/12/19 06:46:18;;;;;;;164.38;11.68;;;2.60;99.90;;;;;;4806756;29;20055;-84
2021/12/19 06:48:45;;;;;;;99.88;11.35;;;2.60;99.90;;;;;;4806503;29;20368;-83
2021/12/19 06:51:12;;;;;;;113.63;10.45;;;2.60;99.90;;;;;;4806574;29;20108;-83
2021/12/19 06:53:39;;;;;;;239.23;14.32;;;2.70;99.90;;;;;;4806167;29;20051;-83
2021/12/19 06:56:06;;;;;;;224.38;12.77;;;2.60;99.90;;;;;;4806557;29;20054;-83
2021/12/19 06:58:33;;;;;;;115.95;9.15;;;2.60;99.90;;;;;;4793600;29;20116;-83
2021/12/19 07:01:00;;;;;;;111.53;10.80;;;2.60;99.90;;;;;;4788333;30;20055;-83
2021/12/19 07:03:28;;;;;;;152.43;11.30;;;2.60;99.90;;;;;;4787983;30;20091;-83
2021/12/19 07:05:55;;;;;;;71.23;7.77;;;2.50;99.90;;;;;;4788186;30;20067;-83
2021/12/19 07:08:26;;;;;;;236.90;14.40;;;2.50;99.90;;;;;;4788297;30;20112;-83
2021/12/19 07:10:53;;;;;;;108.95;10.25;;;2.60;99.90;;;;;;4788053;30;20051;-83
2021/12/19 07:13:21;;;;;;;108.32;11.07;;;2.70;99.90;;;;;;4788139;30;20055;-83
2021/12/19 07:15:48;;;;;;;204.57;13.15;;;2.60;99.90;;;;;;4788105;30;20055;-83
2021/12/19 07:18:16;;;;;;;172.57;11.88;;;2.60;99.90;;;;;;4787936;30;20063;-83
2021/12/19 07:20:44;;;;;;;124.88;9.93;;;2.60;99.90;;;;;;4788196;30;20078;-83
2021/12/19 07:23:12;;;;;;;111.75;10.07;;;2.60;99.90;;;;;;4787778;30;20051;-83
2021/12/19 07:25:39;;;;;;;113.05;9.63;;;2.60;99.90;;;;;;4787782;30;20055;-83
2021/12/19 07:28:07;;;;;;;127.60;10.18;;;2.60;99.90;;;;;;4788062;30;20070;-83
2021/12/19 07:30:36;;;;;;;133.27;11.85;;;2.60;99.90;;;;;;4787832;30;20104;-83
2021/12/19 07:33:04;;;;;;;91.75;9.35;;;2.50;99.90;;;;;;4789168;29;20057;-83
2021/12/19 07:35:34;;;;;;;200.98;12.90;;;2.50;99.90;;;;;;4790953;30;20568;-83
2021/12/19 07:38:04;;;;;;;136.07;9.13;;;2.50;99.90;;;;;;4791460;30;20055;-84
2021/12/19 07:40:36;;;;;;;124.97;9.18;;;2.40;99.90;;;;;;4791078;30;20059;-83
2021/12/19 07:43:04;;;;;;;113.65;9.40;;;2.50;99.90;;;;;;4791099;30;20051;-83
2021/12/19 07:45:31;;;;;;;128.18;10.07;;;2.50;99.90;;;;;;4790832;30;20051;-84
2021/12/19 07:47:59;;;;;;;119.28;9.23;;;2.50;99.90;;;;;;4791203;30;20093;-84
2021/12/19 07:50:27;;;;;;;85.80;7.18;;;2.50;99.90;;;;;;4790793;30;20108;-83
2021/12/19 07:52:54;;;;;;;74.40;5.90;;;2.50;99.90;;;;;;4791231;30;20082;-83
2021/12/19 07:55:34;;;;;;;103.97;7.65;;;2.60;99.90;;;;;;4790830;30;20216;-83
2021/12/19 07:58:01;;;;;;;115.85;7.47;;;2.50;99.90;;;;;;4791024;30;20079;-83
2021/12/19 08:00:29;;;;;;;102.38;8.38;;;2.40;99.90;;;;;;4791243;30;20059;-84
2021/12/19 08:02:56;;;;;;;105.53;7.65;;;1.90;99.90;;;;;;4790498;30;20592;-83
2021/12/19 08:05:23;;;;;;;71.53;5.68;;;2.40;99.90;;;;;;4801488;29;20086;-83
2021/12/19 08:07:56;;;;;;;79.63;6.78;;;2.40;99.90;;;;;;4808785;29;20055;-83
2021/12/19 08:13:09;;;;;;;117.72;7.53;;;2.40;99.90;;;;;;4789281;29;20384;-82
2021/12/19 08:15:37;;;;;;;163.27;9.32;;;2.40;99.90;;;;;;4808749;29;20146;-83
2021/12/19 08:18:05;;;;;;;132.05;7.68;;;2.40;99.90;;;;;;4808528;29;20116;-83
2021/12/19 08:20:32;;;;;;;126.63;9.82;;;2.20;99.90;;;;;;4808272;29;20583;-82
2021/12/19 08:22:59;;;;;;;156.32;9.10;;;2.20;99.90;;;;;;4808434;29;20506;-84
2021/12/19 08:25:27;;;;;;;143.90;7.88;;;2.20;99.90;;;;;;4808258;29;20055;-83
2021/12/19 08:27:54;;;;;;;187.52;10.15;;;2.20;99.90;;;;;;4808084;29;20115;-82
2021/12/19 08:30:24;;;;;;;376.95;17.90;;;2.20;99.90;;;;;;4808136;29;20090;-82
2021/12/19 08:32:53;;;;;;;234.55;12.68;;;2.30;99.90;;;;;;4808581;29;20050;-83
2021/12/19 08:35:20;;;;;;;274.40;14.40;;;2.50;99.90;;;;;;4807925;29;20146;-83
2021/12/19 08:37:47;;;;;;;349.20;16.02;;;2.30;99.90;;;;;;4808136;29;20094;-83
2021/12/19 08:40:14;;;;;;;524.35;24.85;;;2.40;99.90;;;;;;4807822;29;20475;-83
2021/12/19 08:42:41;;;;;;;415.58;19.08;;;2.30;99.90;;;;;;4807986;29;20104;-83
2021/12/19 08:45:09;;;;;;;141.13;8.57;;;2.20;99.90;;;;;;4807110;29;20058;-84
2021/12/19 08:47:37;;;;;;;271.52;14.23;;;2.30;99.90;;;;;;4807499;29;20441;-84
2021/12/19 08:50:06;;;;;;;282.17;13.27;;;2.40;99.90;;;;;;4808280;29;20107;-83
2021/12/19 08:52:33;;;;;;;389.13;16.63;;;2.30;99.90;;;;;;4807473;29;20108;-83
2021/12/19 08:55:00;;;;;;;163.77;9.68;;;2.30;99.90;;;;;;4807560;29;20135;-83
2021/12/19 08:57:28;;;;;;;215.40;10.27;;;2.40;99.90;;;;;;4802655;29;20083;-84
2021/12/19 08:59:55;;;;;;;90.22;6.72;;;2.40;99.90;;;;;;4788941;30;20108;-83
2021/12/19 09:02:22;;;;;;;170.02;8.68;;;2.40;99.90;;;;;;4789206;30;20055;-83
2021/12/19 09:04:52;;;;;;;83.93;6.60;;;2.40;99.90;;;;;;4789344;30;20469;-83
2021/12/19 09:07:19;;;;;;;79.28;5.70;;;2.40;99.90;;;;;;4789404;30;20086;-83
2021/12/19 09:09:48;;;;;;;166.15;9.68;;;2.50;99.90;;;;;;4789594;30;20048;-83
2021/12/19 09:12:15;;;;;;;92.57;7.13;;;2.50;99.90;;;;;;4788753;30;20140;-83
2021/12/19 09:14:42;;;;;;;239.32;11.60;;;2.40;99.90;;;;;;4788982;30;20440;-83
2021/12/19 09:17:09;;;;;;;318.40;13.93;;;2.80;99.90;;;;;;4789377;30;20108;-84
2021/12/19 09:19:37;;;;;;;409.88;20.33;;;2.40;99.90;;;;;;4789295;30;20051;-83
2021/12/19 09:22:05;;;;;;;117.28;8.80;;;2.40;99.90;;;;;;4789260;30;20055;-83
2021/12/19 09:24:32;;;;;;;142.68;9.02;;;2.40;99.90;;;;;;4788811;30;20543;-83
2021/12/19 09:27:00;;;;;;;130.50;9.43;;;2.40;99.90;;;;;;4788823;30;20102;-83
2021/12/19 09:29:28;;;;;;;122.95;8.20;;;2.40;99.90;;;;;;4789069;30;20059;-83
2021/12/19 09:31:56;;;;;;;132.82;6.95;;;2.50;99.90;;;;;;4789631;30;20051;-82
2021/12/19 09:34:23;;;;;;;267.42;13.00;;;2.60;99.90;;;;;;4788537;30;20201;-83
2021/12/19 09:36:50;;;;;;;111.70;7.28;;;2.40;99.90;;;;;;4788979;30;20051;-82
2021/12/19 09:39:19;;;;;;;181.63;9.80;;;2.20;99.90;;;;;;4789004;30;20047;-84
2021/12/19 09:41:47;;;;;;;115.27;8.17;;;2.10;99.90;;;;;;4788349;30;20510;-82
2021/12/19 09:44:16;;;;;;;124.33;8.20;;;2.10;99.90;;;;;;4789958;30;20307;-82
2021/12/19 09:46:46;;;;;;;186.63;10.43;;;2.20;99.90;;;;;;4788273;30;20090;-83
2021/12/19 09:49:16;;;;;;;146.75;9.82;;;2.30;99.90;;;;;;4788922;30;20108;-83
2021/12/19 09:51:44;;;;;;;142.65;8.45;;;2.20;99.90;;;;;;4788337;30;20060;-83
2021/12/19 09:54:12;;;;;;;229.35;12.25;;;2.00;99.90;;;;;;4788039;30;20545;-83
2021/12/19 09:56:44;;;;;;;306.73;20.90;;;1.90;99.90;;;;;;4788432;29;20056;-83
2021/12/19 09:59:23;;;;;;;147.63;10.38;;;1.90;99.90;;;;;;4787261;30;20043;-83
2021/12/19 10:01:51;;;;;;;122.28;8.65;;;1.40;99.90;;;;;;4786723;30;20160;-84
2021/12/19 10:04:34;;;;;;;170.10;10.85;;;3.10;99.90;;;;;;4788666;29;20059;-83
2021/12/19 10:07:10;;;;;;;173.07;10.35;;;2.00;99.90;;;;;;4779856;30;20138;-83
2021/12/19 10:09:42;;;;;;;195.73;12.77;;;2.20;99.90;;;;;;4787809;30;20507;-83
2021/12/19 10:15:10;;;;;;;133.38;9.18;;;2.20;99.90;;;;;;4769249;30;20128;-83
2021/12/19 10:17:38;;;;;;;168.38;11.60;;;2.10;99.90;;;;;;4788355;30;20438;-83
2021/12/19 10:20:08;;;;;;;153.98;10.63;;;2.10;99.90;;;;;;4786565;30;20560;-84
2021/12/19 10:22:38;;;;;;;177.15;11.50;;;2.20;99.90;;;;;;4788461;30;20078;-83
2021/12/19 10:25:17;;;;;;;119.45;9.35;;;2.20;99.90;;;;;;4788599;30;20124;-83
2021/12/19 10:27:46;;;;;;;177.32;10.82;;;2.30;99.90;;;;;;4788753;30;20124;-83
2021/12/19 10:30:19;;;;;;;239.88;13.75;;;2.50;99.90;;;;;;4788235;30;20066;-83
2021/12/19 10:33:01;;;;;;;157.45;11.65;;;2.60;99.90;;;;;;4788163;30;20523;-83
2021/12/19 10:35:34;;;;;;;138.95;10.48;;;2.80;99.90;;;;;;4788083;30;20507;-83
2021/12/19 10:38:04;;;;;;;120.38;8.40;;;3.00;99.90;;;;;;4788277;30;20517;-83
2021/12/19 10:40:33;;;;;;;;;;;2.80;99.90;;;;;;4788264;30;20063;-83
2021/12/19 10:43:04;;;;;;;113.68;8.32;;;2.90;99.90;;;;;;4788466;30;20370;-83
2021/12/19 10:45:43;;;;;;;226.50;19.85;;;2.90;99.90;;;;;;4789320;30;20098;-84
2021/12/19 10:48:27;;;;;;;159.85;11.27;;;3.00;99.90;;;;;;4788725;30;20056;-83
2021/12/19 10:51:04;;;;;;;191.32;12.48;;;2.80;99.90;;;;;;4786612;30;20097;-83
2021/12/19 10:53:37;;;;;;;168.15;12.05;;;2.80;99.90;;;;;;4787988;30;20104;-84
2021/12/19 10:56:09;;;;;;;133.00;9.75;;;2.70;99.90;;;;;;4788375;30;20495;-83
2021/12/19 10:58:42;;;;;;;109.35;8.57;;;3.50;99.90;;;;;;4788359;30;20055;-83
2021/12/19 11:01:22;;;;;;;147.95;11.35;;;2.80;99.90;;;;;;4792955;30;20061;-84
2021/12/19 11:03:59;;;;;;;82.55;8.10;;;2.90;99.90;;;;;;4795099;30;20580;-83
2021/12/19 15:05:15;;;;;;;76.30;12.60;;;4.10;99.90;;;;;;4754618;30;20143;-83
2021/12/19 15:07:44;;;;;;;230.90;18.98;;;4.10;99.90;;;;;;4756324;30;20094;-83
2021/12/19 15:10:13;;;;;;;139.80;18.52;;;4.00;99.90;;;;;;4755919;30;20091;-83
2021/12/19 15:12:40;;;;;;;193.48;18.25;;;3.80;99.90;;;;;;4756189;30;20064;-83
2021/12/19 15:15:08;;;;;;;138.35;15.23;;;3.70;99.90;;;;;;4755699;30;20151;-83
2021/12/19 15:17:35;;;;;;;230.80;19.85;;;3.70;99.90;;;;;;4755671;30;20114;-82
2021/12/19 15:20:02;;;;;;;161.13;16.25;;;3.70;99.90;;;;;;4755869;30;20068;-83
2021/12/19 15:22:31;;;;;;;155.25;15.30;;;3.60;99.90;;;;;;4757291;30;20122;-83
2021/12/19 15:24:58;;;;;;;;;;;3.70;99.90;;;;;;4773689;30;20101;-83
2021/12/19 15:27:25;;;;;;;214.63;17.38;;;3.70;99.90;;;;;;4773548;30;20413;-83
2021/12/19 15:29:55;;;;;;;161.98;14.65;;;3.50;99.90;;;;;;4773278;30;20082;-83
2021/12/19 15:32:22;;;;;;;220.10;15.95;;;3.40;99.90;;;;;;4773571;30;20086;-83
2021/12/19 15:34:49;;;;;;;130.80;13.88;;;3.30;99.90;;;;;;4773442;30;20070;-84
2021/12/19 15:37:16;;;;;;;85.97;13.82;;;3.30;99.90;;;;;;4773062;30;20089;-84
2021/12/19 15:39:47;;;;;;;105.32;14.93;;;3.80;99.90;;;;;;4773322;30;20097;-84
2021/12/19 15:42:17;;;;;;;118.05;14.68;;;3.40;99.90;;;;;;4773287;30;20051;-83
2021/12/19 15:44:44;;;;;;;147.27;15.00;;;3.50;99.90;;;;;;4773476;30;20078;-84
2021/12/19 15:47:11;;;;;;;122.05;13.93;;;3.50;99.90;;;;;;4773364;30;20062;-84
2021/12/19 15:49:38;;;;;;;209.63;16.65;;;3.50;99.90;;;;;;4773268;30;20076;-84
2021/12/19 15:52:05;;;;;;;163.45;16.08;;;3.50;99.90;;;;;;4772996;30;20063;-84
2021/12/19 15:54:32;;;;;;;153.95;15.07;;;3.40;99.90;;;;;;4771836;30;20412;-83
2021/12/19 15:57:02;;;;;;;131.90;15.30;;;3.40;99.90;;;;;;4771591;30;20439;-84
2021/12/19 15:59:30;;;;;;;168.38;17.67;;;3.40;99.90;;;;;;4754734;30;20138;-84
2021/12/19 16:01:58;;;;;;;231.68;20.50;;;3.40;99.90;;;;;;4755195;30;20374;-84
2021/12/19 16:04:25;;;;;;;113.93;14.77;;;3.40;99.90;;;;;;4760814;30;20145;-84
2021/12/19 16:06:52;;;;;;;103.28;14.80;;;3.40;99.90;;;;;;4772274;30;20496;-84
2021/12/19 16:09:19;;;;;;;96.55;13.77;;;3.50;99.90;;;;;;4772315;30;20083;-84
2021/12/19 16:11:46;;;;;;;109.60;16.27;;;3.60;99.90;;;;;;4772300;30;20066;-83
2021/12/19 16:14:15;;;;;;;91.97;14.02;;;3.70;99.90;;;;;;4772414;30;20454;-83
2021/12/19 16:16:42;;;;;;;141.10;14.97;;;3.70;99.90;;;;;;4772446;30;20160;-83
2021/12/19 16:19:09;;;;;;;111.47;17.17;;;3.60;99.90;;;;;;4772943;30;20059;-83
2021/12/19 16:21:36;;;;;;;221.40;19.98;;;3.50;99.90;;;;;;4772336;30;20048;-83
2021/12/19 16:24:03;;;;;;;169.43;17.15;;;3.50;99.90;;;;;;4772593;30;20454;-83
2021/12/19 16:26:30;;;;;;;174.80;16.60;;;3.40;99.90;;;;;;4772453;30;20101;-83
2021/12/19 16:28:57;;;;;;;96.70;14.48;;;3.30;99.90;;;;;;4772523;30;20109;-84
2021/12/19 16:31:32;;;;;;;122.80;15.43;;;3.30;99.90;;;;;;4772336;30;20081;-83
2021/12/19 16:34:02;;;;;;;294.02;20.88;;;3.50;99.90;;;;;;4772848;30;20052;-83
2021/12/19 16:36:30;;;;;;;305.88;19.65;;;3.40;99.90;;;;;;4772182;30;20070;-83
2021/12/19 16:38:57;;;;;;;267.10;19.13;;;3.30;99.90;;;;;;4772263;30;20569;-83
2021/12/19 16:41:31;;;;;;;296.00;22.17;;;3.20;99.90;;;;;;4772238;30;20175;-83
2021/12/19 16:43:58;;;;;;;272.15;25.83;;;3.20;99.90;;;;;;4772071;30;20101;-84
2021/12/19 16:46:26;;;;;;;164.43;17.02;;;3.20;99.90;;;;;;4772503;30;20055;-84
2021/12/19 16:48:55;;;;;;;182.45;18.90;;;3.20;99.90;;;;;;4772358;30;20121;-84
2021/12/19 16:51:22;;;;;;;243.32;18.45;;;3.40;99.90;;;;;;4771973;30;20470;-84
2021/12/19 16:53:49;;;;;;;365.90;23.40;;;3.50;99.90;;;;;;4772412;30;20132;-84
2021/12/19 16:56:18;;;;;;;362.73;24.73;;;3.20;99.90;;;;;;4772195;30;20052;-84
2021/12/19 16:58:45;;;;;;;122.68;16.73;;;3.20;99.90;;;;;;4758946;30;20062;-84
2021/12/19 17:01:12;;;;;;;135.95;17.30;;;3.70;99.90;;;;;;4752908;30;20075;-84
2021/12/19 17:03:41;;;;;;;320.80;26.38;;;3.40;99.90;;;;;;4754226;30;20090;-84
2021/12/19 17:06:10;;;;;;;103.75;17.83;;;3.40;99.90;;;;;;4754020;30;20088;-84
2021/12/19 17:08:37;;;;;;;297.25;24.08;;;3.40;99.90;;;;;;4754553;30;20059;-81
2021/12/19 17:11:04;;;;;;;354.90;23.88;;;3.30;99.90;;;;;;4754350;30;20052;-84
2021/12/19 17:13:37;;;;;;;277.50;23.98;;;3.30;99.90;;;;;;4754103;30;20102;-84
2021/12/19 17:16:05;;;;;;;240.07;22.23;;;3.00;99.90;;;;;;4754088;30;20052;-84
2021/12/19 17:18:32;;;;;;;345.30;30.65;;;2.90;99.90;;;;;;4753698;30;20059;-84
2021/12/19 17:21:01;;;;;;;262.15;29.42;;;2.80;99.90;;;;;;4754338;30;20084;-83
2021/12/19 17:23:28;;;;;;;151.20;18.70;;;2.80;99.90;;;;;;4754353;30;20386;-84
2021/12/19 17:25:55;;;;;;;242.27;25.05;;;2.90;99.90;;;;;;4758459;30;20089;-83
2021/12/19 17:28:23;;;;;;;144.50;20.30;;;2.90;99.90;;;;;;4771475;30;20051;-84
2021/12/19 17:30:55;;;;;;;185.93;21.30;;;3.10;99.90;;;;;;4752784;30;20079;-84
2021/12/19 17:33:22;;;;;;;169.88;19.85;;;3.10;99.90;;;;;;4753832;30;20079;-84
2021/12/19 17:35:50;;;;;;;202.70;21.73;;;3.00;99.90;;;;;;4753433;30;20061;-84